createdAt,value
2022-08-22T00:00:13.652Z,7.88
2022-08-22T00:02:56.358Z,5.53
2022-08-22T00:03:03.228Z,11.55
2022-08-22T00:06:03.482Z,7.22
2022-08-22T00:08:33.144Z,7.13
2022-08-22T00:11:25.656Z,7.60
2022-08-22T00:14:01.502Z,7.47
2022-08-22T00:16:38.478Z,7.18
2022-08-22T00:19:22.050Z,7.30
2022-08-22T00:22:42.452Z,7.05
2022-08-22T00:25:30.318Z,7.57
2022-08-22T00:28:03.924Z,7.53
2022-08-22T00:33:18.050Z,7.07
2022-08-22T00:35:49.694Z,7.25
2022-08-22T00:38:26.791Z,7.32
2022-08-22T00:41:03.648Z,7.43
2022-08-22T00:43:49.358Z,7.45
2022-08-22T00:46:22.933Z,7.50
2022-08-22T00:49:35.174Z,7.38
2022-08-22T00:52:20.773Z,8.38
2022-08-22T00:55:06.943Z,8.40
2022-08-22T00:57:54.783Z,8.43
2022-08-22T01:00:26.558Z,8.45
2022-08-22T01:03:17.517Z,8.32
2022-08-22T01:06:08.153Z,8.63
2022-08-22T01:08:50.104Z,7.70
2022-08-22T01:11:44.568Z,8.60
2022-08-22T01:14:34.763Z,7.90
2022-08-22T01:17:20.243Z,7.88
2022-08-22T01:20:10.865Z,8.77
2022-08-22T01:23:08.509Z,8.02
2022-08-22T01:26:12.869Z,8.40
2022-08-22T01:29:17.934Z,8.15
2022-08-22T01:35:07.224Z,7.88
2022-08-22T01:38:13.931Z,8.82
2022-08-22T01:40:47.570Z,8.77
2022-08-22T01:43:58.586Z,8.70
2022-08-22T01:46:25.205Z,8.52
2022-08-22T01:49:08.777Z,9.88
2022-08-22T01:51:54.151Z,8.70
2022-08-22T01:54:29.607Z,9.23
2022-08-22T01:57:04.108Z,10.35
2022-08-22T01:59:42.636Z,9.82
2022-08-22T02:02:34.957Z,9.55
2022-08-22T02:05:21.821Z,10.05
2022-08-22T02:08:07.232Z,9.63
2022-08-22T02:11:02.541Z,9.52
2022-08-22T02:13:36.825Z,9.88
2022-08-22T02:16:11.171Z,10.15
2022-08-22T02:19:04.122Z,10.88
2022-08-22T02:21:51.740Z,10.45
2022-08-22T02:24:35.573Z,10.00
2022-08-22T02:27:31.418Z,10.45
2022-08-22T02:30:02.273Z,10.65
2022-08-22T02:32:40.941Z,10.15
2022-08-22T02:35:21.315Z,9.90
2022-08-22T02:38:13.166Z,10.65
2022-08-22T02:40:51.112Z,10.48
2022-08-22T02:43:34.726Z,12.15
2022-08-22T02:46:38.534Z,11.77
2022-08-22T02:49:27.404Z,11.43
2022-08-22T02:52:18.949Z,11.65
2022-08-22T02:54:56.458Z,11.05
2022-08-22T02:57:33.866Z,11.80
2022-08-22T03:00:27.757Z,10.25
2022-08-22T03:02:58.732Z,10.85
2022-08-22T03:05:40.095Z,10.85
2022-08-22T03:08:23.220Z,10.40
2022-08-22T03:11:03.019Z,10.93
2022-08-22T03:13:55.889Z,10.93
2022-08-22T03:16:55.134Z,10.20
2022-08-22T03:19:44.063Z,9.60
2022-08-22T03:22:17.337Z,10.20
2022-08-22T03:24:54.484Z,10.82
2022-08-22T03:27:49.840Z,10.35
2022-08-22T03:30:41.566Z,10.10
2022-08-22T03:33:22.917Z,8.65
2022-08-22T03:36:17.680Z,8.65
2022-08-22T03:39:17.705Z,9.90
2022-08-22T03:42:10.191Z,9.77
2022-08-22T03:44:55.280Z,10.10
2022-08-22T03:47:48.884Z,10.10
2022-08-22T03:50:54.538Z,9.82
2022-08-22T03:53:34.232Z,10.68
2022-08-22T03:56:39.149Z,10.18
2022-08-22T03:59:24.444Z,10.05
2022-08-22T04:02:03.598Z,7.93
2022-08-22T04:05:27.893Z,8.02
2022-08-22T04:10:58.955Z,8.73
2022-08-22T04:14:00.301Z,8.82
2022-08-22T04:16:42.018Z,8.27
2022-08-22T04:19:28.023Z,8.57
2022-08-22T04:22:13.014Z,8.77
2022-08-22T04:25:07.252Z,9.05
2022-08-22T04:27:55.810Z,9.93
2022-08-22T04:30:22.910Z,9.88
2022-08-22T04:33:11.070Z,10.20
2022-08-22T04:35:44.686Z,10.80
2022-08-22T04:41:04.742Z,10.60
2022-08-22T04:43:39.300Z,10.32
2022-08-22T04:46:36.726Z,11.50
2022-08-22T04:49:25.936Z,11.50
2022-08-22T04:52:21.017Z,11.93
2022-08-22T04:55:28.801Z,11.60
2022-08-22T04:58:07.557Z,12.02
2022-08-22T05:00:56.939Z,12.75
2022-08-22T05:03:28.942Z,11.70
2022-08-22T05:05:59.170Z,12.00
2022-08-22T05:08:30.334Z,13.35
2022-08-22T05:10:58.462Z,12.35
2022-08-22T05:13:32.598Z,13.75
2022-08-22T05:16:05.681Z,12.55
2022-08-22T05:18:39.368Z,13.15
2022-08-22T05:23:42.976Z,13.10
2022-08-22T05:26:12.386Z,13.70
2022-08-22T05:28:45.493Z,11.75
2022-08-22T05:31:23.271Z,14.02
2022-08-22T05:33:56.432Z,13.77
2022-08-22T05:36:27.313Z,12.30
2022-08-22T05:39:00.650Z,13.05
2022-08-22T05:41:32.453Z,13.38
2022-08-22T05:43:59.646Z,12.18
2022-08-22T05:46:38.783Z,12.30
2022-08-22T05:49:15.449Z,11.77
2022-08-22T05:52:07.598Z,12.30
2022-08-22T05:54:51.470Z,13.10
2022-08-22T05:57:28.858Z,14.50
2022-08-22T06:00:04.363Z,14.82
2022-08-22T06:02:42.559Z,14.98
2022-08-22T06:05:12.187Z,14.32
2022-08-22T06:07:47.466Z,14.43
2022-08-22T06:10:38.816Z,13.93
2022-08-22T06:13:28.061Z,14.43
2022-08-22T06:16:16.976Z,14.57
2022-08-22T06:18:45.835Z,15.38
2022-08-22T06:21:20.917Z,14.77
2022-08-22T06:23:53.514Z,13.40
2022-08-22T06:26:22.285Z,13.10
2022-08-22T06:28:55.403Z,11.75
2022-08-22T06:31:51.002Z,11.77
2022-08-22T06:34:24.523Z,11.38
2022-08-22T06:36:54.434Z,9.35
2022-08-22T06:39:38.156Z,10.73
2022-08-22T06:42:15.873Z,10.45
2022-08-22T06:44:45.318Z,10.05
2022-08-22T06:47:57.112Z,9.00
2022-08-22T06:50:49.346Z,8.83
2022-08-22T06:53:26.616Z,8.85
2022-08-22T06:55:59.391Z,8.45
2022-08-22T06:58:33.887Z,9.20
2022-08-22T07:01:25.101Z,9.00
2022-08-22T07:03:58.204Z,8.25
2022-08-22T07:06:38.578Z,8.68
2022-08-22T07:09:07.168Z,7.13
2022-08-22T07:11:39.590Z,7.25
2022-08-22T07:14:15.515Z,7.00
2022-08-22T07:16:49.738Z,6.30
2022-08-22T07:19:32.857Z,6.90
2022-08-22T07:22:14.026Z,6.53
2022-08-22T07:24:47.457Z,6.10
2022-08-22T07:30:06.839Z,6.25
2022-08-22T07:33:15.290Z,5.97
2022-08-22T07:35:55.933Z,6.00
2022-08-22T07:39:03.810Z,6.35
2022-08-22T07:41:58.129Z,6.45
2022-08-22T07:44:31.200Z,5.47
2022-08-22T07:47:08.882Z,6.28
2022-08-22T07:49:52.224Z,6.07
2022-08-22T07:52:20.170Z,5.20
2022-08-22T07:54:49.118Z,5.30
2022-08-22T07:57:22.627Z,5.18
2022-08-22T08:02:21.180Z,5.32
2022-08-22T08:04:54.909Z,4.60
2022-08-22T08:07:27.427Z,4.90
2022-08-22T08:10:00.024Z,4.80
2022-08-22T08:12:35.131Z,4.35
2022-08-22T08:15:06.220Z,4.25
2022-08-22T08:17:35.530Z,4.13
2022-08-22T08:20:08.666Z,4.57
2022-08-22T08:22:38.854Z,4.40
2022-08-22T08:25:12.188Z,3.92
2022-08-22T08:27:58.212Z,3.65
2022-08-22T08:30:43.462Z,4.25
2022-08-22T08:33:24.975Z,3.85
2022-08-22T08:36:09.069Z,3.83
2022-08-22T08:38:57.949Z,3.83
2022-08-22T08:41:50.818Z,3.58
2022-08-22T08:44:33.862Z,3.35
2022-08-22T08:47:40.665Z,3.50
2022-08-22T08:50:32.793Z,3.30
2022-08-22T08:53:29.373Z,3.50
2022-08-22T08:56:19.497Z,3.20
2022-08-22T08:59:00.308Z,3.13
2022-08-22T09:02:13.709Z,2.92
2022-08-22T09:05:08.803Z,3.47
2022-08-22T09:07:44.589Z,3.05
2022-08-22T09:10:29.425Z,2.95
2022-08-22T09:13:15.168Z,3.20
2022-08-22T09:16:11.469Z,3.03
2022-08-22T09:18:58.153Z,3.17
2022-08-22T09:21:31.401Z,3.17
2022-08-22T09:24:23.427Z,3.30
2022-08-22T09:27:03.624Z,3.13
2022-08-22T09:30:02.464Z,3.00
2022-08-22T09:33:09.218Z,2.83
2022-08-22T09:35:51.037Z,2.95
2022-08-22T09:38:40.341Z,2.67
2022-08-22T09:41:54.269Z,2.90
2022-08-22T09:45:19.390Z,3.03
2022-08-22T09:50:48.777Z,3.30
2022-08-22T09:53:57.985Z,3.03
2022-08-22T09:56:30.692Z,2.67
2022-08-22T09:59:06.784Z,3.33
2022-08-22T10:01:42.772Z,3.25
2022-08-22T10:04:40.354Z,3.50
2022-08-22T10:07:31.269Z,2.67
2022-08-22T10:10:01.438Z,2.80
2022-08-22T10:12:36.565Z,2.97
2022-08-22T10:15:23.889Z,3.10
2022-08-22T10:18:05.545Z,3.40
2022-08-22T10:20:47.205Z,3.03
2022-08-22T10:23:21.322Z,3.35
2022-08-22T10:25:49.891Z,3.40
2022-08-22T10:28:31.830Z,3.85
2022-08-22T10:31:58.449Z,3.70
2022-08-22T10:34:29.839Z,3.40
2022-08-22T10:37:30.798Z,3.13
2022-08-22T10:40:23.785Z,3.83
2022-08-22T10:42:57.512Z,3.97
2022-08-22T10:45:43.509Z,3.72
2022-08-22T10:48:24.405Z,3.13
2022-08-22T10:51:00.881Z,2.80
2022-08-22T10:53:37.878Z,2.72
2022-08-22T10:56:16.021Z,3.15
2022-08-22T10:59:06.752Z,3.30
2022-08-22T11:01:42.036Z,3.38
2022-08-22T11:04:35.320Z,2.95
2022-08-22T11:07:35.829Z,3.65
2022-08-22T11:10:09.164Z,3.55
2022-08-22T11:12:44.525Z,3.40
2022-08-22T11:15:28.434Z,3.28
2022-08-22T11:18:17.587Z,3.08
2022-08-22T11:21:27.506Z,3.30
2022-08-22T11:24:36.263Z,2.90
2022-08-22T11:27:38.232Z,3.65
2022-08-22T11:30:18.718Z,2.83
2022-08-22T11:32:59.433Z,3.10
2022-08-22T11:35:37.253Z,2.80
2022-08-22T11:38:32.531Z,3.05
2022-08-22T11:41:18.289Z,2.88
2022-08-22T11:44:03.679Z,2.55
2022-08-22T11:46:36.958Z,3.13
2022-08-22T11:49:43.431Z,3.00
2022-08-22T11:52:22.777Z,2.55
2022-08-22T11:55:05.721Z,2.70
2022-08-22T11:57:44.353Z,3.03
2022-08-22T12:00:26.431Z,2.40
2022-08-22T12:03:19.781Z,2.60
2022-08-22T12:06:08.125Z,2.30
2022-08-22T12:08:35.402Z,2.40
2022-08-22T12:11:23.741Z,2.20
2022-08-22T12:14:06.654Z,2.65
2022-08-22T12:16:54.938Z,2.78
2022-08-22T12:19:48.930Z,2.30
2022-08-22T12:23:17.019Z,2.22
2022-08-22T12:26:17.952Z,2.45
2022-08-22T12:29:15.583Z,2.20
2022-08-22T12:32:16.585Z,2.30
2022-08-22T12:34:57.668Z,2.22
2022-08-22T12:37:52.265Z,2.30
2022-08-22T12:40:45.976Z,2.33
2022-08-22T12:43:42.635Z,2.38
2022-08-22T12:46:15.545Z,1.80
2022-08-22T12:48:52.087Z,2.20
2022-08-22T12:51:43.682Z,2.00
2022-08-22T12:54:34.882Z,2.20
2022-08-22T12:57:23.283Z,2.10
2022-08-22T12:59:55.789Z,2.10
2022-08-22T13:02:33.947Z,2.33
2022-08-22T13:05:13.694Z,2.10
2022-08-22T13:07:55.003Z,1.92
2022-08-22T13:10:39.289Z,2.22
2022-08-22T13:13:12.138Z,1.90
2022-08-22T13:15:55.529Z,1.98
2022-08-22T13:18:30.424Z,2.55
2022-08-22T13:21:02.625Z,2.20
2022-08-22T13:23:39.659Z,2.90
2022-08-22T13:26:33.024Z,2.10
2022-08-22T13:29:26.871Z,2.23
2022-08-22T13:32:00.306Z,2.10
2022-08-22T13:34:47.452Z,2.30
2022-08-22T13:37:24.614Z,2.13
2022-08-22T13:40:00.334Z,2.10
2022-08-22T13:42:30.884Z,2.03
2022-08-22T13:45:02.968Z,2.03
2022-08-22T13:50:13.957Z,2.15
2022-08-22T13:52:55.268Z,2.45
2022-08-22T13:55:29.577Z,2.20
2022-08-22T13:58:04.715Z,2.40
2022-08-22T14:01:01.479Z,2.33
2022-08-22T14:03:49.659Z,2.20
2022-08-22T14:06:49.777Z,2.28
2022-08-22T14:09:54.426Z,2.47
2022-08-22T14:12:56.809Z,2.30
2022-08-22T14:15:33.072Z,1.90
2022-08-22T14:18:18.517Z,2.15
2022-08-22T14:20:47.532Z,1.85
2022-08-22T14:23:29.288Z,1.77
2022-08-22T14:25:57.427Z,2.30
2022-08-22T14:28:28.648Z,1.92
2022-08-22T14:31:13.487Z,2.30
2022-08-22T14:34:07.404Z,1.80
2022-08-22T14:36:44.205Z,1.90
2022-08-22T14:39:30.073Z,2.13
2022-08-22T14:42:30.113Z,2.08
2022-08-22T14:45:13.243Z,1.73
2022-08-22T14:48:14.069Z,1.88
2022-08-22T14:50:45.694Z,1.93
2022-08-22T14:53:24.939Z,1.80
2022-08-22T14:56:04.567Z,1.80
2022-08-22T14:58:38.932Z,1.80
2022-08-22T15:01:12.557Z,2.00
2022-08-22T15:03:43.587Z,1.88
2022-08-22T15:06:35.276Z,1.88
2022-08-22T15:09:08.021Z,1.98
2022-08-22T15:11:37.368Z,2.40
2022-08-22T15:14:42.655Z,2.20
2022-08-22T15:17:11.281Z,1.95
2022-08-22T15:19:42.182Z,1.98
2022-08-22T15:22:25.618Z,1.98
2022-08-22T15:25:14.236Z,1.95
2022-08-22T15:27:53.817Z,1.80
2022-08-22T15:30:38.380Z,1.58
2022-08-22T15:33:29.512Z,1.88
2022-08-22T15:36:09.744Z,1.88
2022-08-22T15:38:42.113Z,1.88
2022-08-22T15:41:22.645Z,1.98
2022-08-22T15:44:02.518Z,2.00
2022-08-22T15:46:37.903Z,1.60
2022-08-22T15:49:11.090Z,2.00
2022-08-22T15:51:47.174Z,1.85
2022-08-22T15:54:24.665Z,1.70
2022-08-22T15:56:52.194Z,1.70
2022-08-22T15:59:47.774Z,1.52
2022-08-22T16:02:30.555Z,1.90
2022-08-22T16:05:11.435Z,1.90
2022-08-22T16:07:46.245Z,1.50
2022-08-22T16:10:22.334Z,1.77
2022-08-22T16:13:12.080Z,1.65
2022-08-22T16:15:51.552Z,1.88
2022-08-22T16:18:39.138Z,1.60
2022-08-22T16:21:13.222Z,1.77
2022-08-22T16:23:46.532Z,1.58
2022-08-22T16:26:31.538Z,2.10
2022-08-22T16:29:14.812Z,1.90
2022-08-22T16:31:44.994Z,1.60
2022-08-22T16:34:17.829Z,1.70
2022-08-22T16:37:03.332Z,1.70
2022-08-22T16:39:41.563Z,2.13
2022-08-22T16:42:12.608Z,1.40
2022-08-22T16:44:42.262Z,1.40
2022-08-22T16:47:41.496Z,1.50
2022-08-22T16:50:23.846Z,1.70
2022-08-22T16:52:59.798Z,1.50
2022-08-22T16:58:16.035Z,1.70
2022-08-22T17:00:57.677Z,1.60
2022-08-22T17:04:02.394Z,1.35
2022-08-22T17:07:05.916Z,1.67
2022-08-22T17:09:47.907Z,1.70
2022-08-22T17:12:33.097Z,1.80
2022-08-22T17:15:03.492Z,1.50
2022-08-22T17:17:39.969Z,1.50
2022-08-22T17:20:44.152Z,1.90
2022-08-22T17:23:36.121Z,1.67
2022-08-22T17:26:40.332Z,1.80
2022-08-22T17:29:09.986Z,1.50
2022-08-22T17:31:50.230Z,1.52
2022-08-22T17:34:41.938Z,1.58
2022-08-22T17:37:21.531Z,1.55
2022-08-22T17:40:23.080Z,1.58
2022-08-22T17:42:49.863Z,1.45
2022-08-22T17:45:38.357Z,1.17
2022-08-22T17:48:21.544Z,1.63
2022-08-22T17:50:56.040Z,1.42
2022-08-22T17:53:26.907Z,1.33
2022-08-22T17:56:07.126Z,1.30
2022-08-22T17:58:44.361Z,1.58
2022-08-22T18:01:34.617Z,1.73
2022-08-22T18:04:14.583Z,1.42
2022-08-22T18:06:49.118Z,1.48
2022-08-22T18:09:45.134Z,1.90
2022-08-22T18:12:20.965Z,1.67
2022-08-22T18:15:00.583Z,1.60
2022-08-22T18:17:41.691Z,1.48
2022-08-22T18:20:15.391Z,1.38
2022-08-22T18:22:48.857Z,1.58
2022-08-22T18:25:19.008Z,1.70
2022-08-22T18:27:58.281Z,1.90
2022-08-22T18:30:36.860Z,1.70
2022-08-22T18:33:19.930Z,1.67
2022-08-22T18:35:55.110Z,2.03
2022-08-22T18:38:45.456Z,1.75
2022-08-22T18:41:32.031Z,1.60
2022-08-22T18:44:01.047Z,1.70
2022-08-22T18:46:38.772Z,2.35
2022-08-22T18:49:21.008Z,1.90
2022-08-22T18:52:06.968Z,2.20
2022-08-22T18:54:49.360Z,1.70
2022-08-22T18:57:40.291Z,1.85
2022-08-22T19:00:16.242Z,1.90
2022-08-22T19:02:56.295Z,2.00
2022-08-22T19:05:43.480Z,1.70
2022-08-22T19:08:38.586Z,2.53
2022-08-22T19:11:36.419Z,2.10
2022-08-22T19:14:12.713Z,2.00
2022-08-22T19:17:06.656Z,1.98
2022-08-22T19:20:09.714Z,2.25
2022-08-22T19:22:37.535Z,2.55
2022-08-22T19:25:10.551Z,2.42
2022-08-22T19:27:41.619Z,2.45
2022-08-22T19:30:49.244Z,2.75
2022-08-22T19:33:37.883Z,2.38
2022-08-22T19:36:11.696Z,2.80
2022-08-22T19:38:50.611Z,2.88
2022-08-22T19:41:45.338Z,2.97
2022-08-22T19:44:18.308Z,2.63
2022-08-22T19:47:00.774Z,3.05
2022-08-22T19:49:31.701Z,3.08
2022-08-22T19:52:20.197Z,2.92
2022-08-22T19:55:03.024Z,2.58
2022-08-22T19:57:49.409Z,2.97
2022-08-22T20:00:20.835Z,3.10
2022-08-22T20:03:19.753Z,3.25
2022-08-22T20:06:33.747Z,2.85
2022-08-22T20:09:28.292Z,3.08
2022-08-22T20:12:13.269Z,2.85
2022-08-22T20:14:46.392Z,3.30
2022-08-22T20:17:25.520Z,3.00
2022-08-22T20:23:10.791Z,2.90
2022-08-22T20:25:48.690Z,3.05
2022-08-22T20:28:24.639Z,2.92
2022-08-22T20:30:57.991Z,3.38
2022-08-22T20:36:28.433Z,3.05
2022-08-22T20:39:08.594Z,3.10
2022-08-22T20:41:41.357Z,3.10
2022-08-22T20:44:23.067Z,2.95
2022-08-22T20:46:53.160Z,2.92
2022-08-22T20:49:34.328Z,4.05
2022-08-22T20:52:21.446Z,3.17
2022-08-22T20:55:05.153Z,3.20
2022-08-22T21:00:11.595Z,3.00
2022-08-22T21:02:55.188Z,3.15
2022-08-22T21:05:25.132Z,2.83
2022-08-22T21:08:20.834Z,3.00
2022-08-22T21:11:18.401Z,3.10
2022-08-22T21:13:45.086Z,3.08
2022-08-22T21:16:13.521Z,3.97
2022-08-22T21:18:51.878Z,3.00
2022-08-22T21:21:20.691Z,3.80
2022-08-22T21:24:00.851Z,3.58
2022-08-22T21:26:32.607Z,3.28
2022-08-22T21:29:18.489Z,3.42
2022-08-22T21:31:59.341Z,3.75
2022-08-22T21:34:40.989Z,3.30
2022-08-22T21:37:25.102Z,3.92
2022-08-22T21:40:09.114Z,3.30
2022-08-22T21:42:46.365Z,3.65
2022-08-22T21:45:39.387Z,3.60
2022-08-22T21:48:43.919Z,3.30
2022-08-22T21:51:46.029Z,3.20
2022-08-22T21:54:21.125Z,3.33
2022-08-22T21:56:49.820Z,3.15
2022-08-22T21:59:58.989Z,3.67
2022-08-22T22:09:15.272Z,3.72
2022-08-22T22:19:10.165Z,3.25
2022-08-22T22:21:37.545Z,3.42
2022-08-22T22:24:06.565Z,3.47
2022-08-22T22:26:34.889Z,3.45
2022-08-22T22:29:02.775Z,4.28
2022-08-22T22:31:29.425Z,3.30
2022-08-22T22:34:27.555Z,3.50
2022-08-22T22:36:54.865Z,3.30
2022-08-22T22:39:21.884Z,3.65
2022-08-22T22:41:50.158Z,3.47
2022-08-22T22:44:16.841Z,3.67
2022-08-22T22:46:48.262Z,3.50
2022-08-22T22:49:15.047Z,3.58
2022-08-22T22:51:41.678Z,4.10
2022-08-22T22:54:08.313Z,3.10
2022-08-22T22:56:38.338Z,3.35
2022-08-22T22:59:13.033Z,3.38
2022-08-22T23:02:07.619Z,3.55
2022-08-22T23:04:37.023Z,3.53
2022-08-22T23:07:05.906Z,3.42
2022-08-22T23:09:38.621Z,3.47
2022-08-22T23:12:13.509Z,3.63
2022-08-22T23:14:40.425Z,3.20
2022-08-22T23:17:08.107Z,3.58
2022-08-22T23:19:34.914Z,3.20
2022-08-22T23:22:02.238Z,3.63
2022-08-22T23:24:31.133Z,3.47
2022-08-22T23:26:58.556Z,3.75
2022-08-22T23:29:25.945Z,4.63
2022-08-22T23:31:55.482Z,3.60
2022-08-22T23:34:25.561Z,4.03
2022-08-22T23:36:55.222Z,3.88
2022-08-22T23:39:29.649Z,3.90
2022-08-22T23:41:57.775Z,3.33
2022-08-22T23:44:30.755Z,3.90
2022-08-22T23:46:58.448Z,3.58
2022-08-22T23:49:26.373Z,3.80
2022-08-22T23:51:53.541Z,3.50
2022-08-22T23:54:21.082Z,3.47
2022-08-22T23:56:56.209Z,3.80
2022-08-22T23:59:34.758Z,3.70
